Date,TemperatureHighF,TemperatureAvgF,TemperatureLowF,DewpointHighF,DewpointAvgF,DewpointLowF,HumidityHigh,HumidityAvg,HumidityLow,PressureMaxIn,PressureMinIn,WindSpeedMaxMPH,WindSpeedAvgMPH,GustSpeedMaxMPH,PrecipitationSumIn
2013-1-1,64,57,46,64,57,46,100,98,91,0.00,40.00,12,6,22,1.08
2013-1-2,46,42,38,46,40,34,100,93,85,0.00,40.00,10,6,19,0.19
2013-1-3,50,39,34,34,28,24,87,66,37,0.00,40.00,9,3,17,0.00
2013-1-4,57,43,33,32,27,22,83,57,26,0.00,40.00,7,3,13,0.00
2013-1-5,51,44,39,43,36,31,99,75,50,0.00,40.00,8,4,18,0.07
2013-1-6,55,46,42,44,42,38,100,88,57,0.00,40.00,8,3,14,0.29
2013-1-7,60,45,35,42,37,32,100,76,38,0.00,40.00,11,4,17,0.01
2013-1-8,63,54,43,59,50,38,100,86,67,0.00,40.00,12,5,20,0.61
2013-1-9,67,63,57,67,63,57,100,100,100,0.00,40.00,11,2,17,3.00
2013-1-10,69,65,62,69,65,62,100,100,98,0.00,40.00,15,9,33,1.08
2013-1-11,69,66,63,69,66,63,100,100,98,0.00,40.00,8,4,17,0.39
2013-1-12,76,70,68,70,68,66,100,94,75,0.00,40.00,12,9,24,0.04
2013-1-13,73,63,44,72,62,44,100,97,90,0.00,40.00,21,9,32,0.80
2013-1-14,44,40,35,44,40,35,100,100,98,0.00,40.00,13,8,23,1.13
2013-1-15,41,39,37,41,39,37,100,100,100,0.00,40.00,8,2,13,0.82
2013-1-16,37,35,34,37,35,34,100,100,99,0.00,40.00,0,0,0,0.18
2013-1-17,52,40,33,36,34,31,100,81,46,0.00,40.00,13,5,24,0.06
2013-1-18,60,43,33,36,32,26,100,73,27,0.00,40.00,9,3,19,0.01
2013-1-19,63,45,30,47,38,30,100,81,46,0.00,40.00,6,3,13,0.00
2013-1-20,67,48,34,48,37,29,100,74,25,0.00,40.00,6,2,12,0.00
2013-1-21,66,49,36,45,40,36,100,75,39,0.00,40.00,7,4,14,0.00
2013-1-22,62,47,38,43,35,27,98,66,37,0.00,40.00,9,4,13,0.00
2013-1-23,72,53,39,49,43,38,100,73,34,0.00,40.00,7,3,13,0.00
2013-1-24,72,58,45,59,53,45,100,86,57,0.00,40.00,7,3,13,0.00
2013-1-25,77,62,50,57,54,50,100,79,46,0.00,40.00,9,4,20,0.00
2013-1-26,72,60,51,62,57,51,100,92,57,0.00,40.00,5,2,10,0.00
2013-1-27,73,61,54,60,56,54,100,87,55,0.00,40.00,14,6,22,0.00
2013-1-28,77,65,58,65,62,58,100,91,55,0.00,40.00,12,5,18,0.00
2013-1-29,80,70,65,69,66,63,100,89,58,0.00,40.00,16,10,30,0.00
2013-1-30,72,57,35,69,47,29,100,73,36,0.00,40.00,15,8,35,0.53
2013-1-31,61,49,29,34,28,22,100,47,23,0.00,40.00,6,4,13,0.01
2013-2-1,61,47,36,34,31,26,90,58,26,0.00,40.00,8,5,14,0.00
2013-2-2,69,52,36,54,38,25,99,60,39,0.00,40.00,9,4,17,0.04
2013-2-3,67,52,39,53,38,25,100,68,20,0.00,40.00,9,3,18,0.05
2013-2-4,58,49,40,51,40,34,89,73,52,0.00,40.00,6,2,9,0.01
2013-2-5,73,60,53,61,55,51,100,88,52,0.00,40.00,5,2,10,0.00
2013-2-6,68,59,54,59,57,54,100,92,65,0.00,40.00,11,5,15,0.34
2013-2-7,68,60,50,60,57,50,100,91,65,0.00,40.00,17,5,25,1.30
2013-2-8,66,56,50,60,53,46,100,90,73,0.00,40.00,11,5,22,0.01
2013-2-9,65,52,40,57,48,40,99,85,61,0.00,40.00,10,6,18,0.00
2013-2-10,69,63,58,69,63,57,100,100,98,0.00,40.00,13,8,24,0.93
2013-2-11,61,55,51,61,55,51,100,100,98,0.00,40.00,10,3,22,3.07
2013-2-12,58,55,52,58,55,52,100,100,100,0.00,40.00,0,0,0,1.22
2013-2-13,55,48,36,55,43,36,100,85,60,0.00,40.00,5,0,7,0.03
2013-2-14,61,44,32,41,36,32,100,77,36,0.00,40.00,6,2,13,0.01
2013-2-15,65,49,33,44,36,33,100,68,31,0.00,40.00,9,4,17,0.00
2013-2-16,50,43,32,36,23,14,71,48,24,0.00,40.00,15,8,28,0.00
2013-2-17,62,45,28,37,28,21,87,54,29,0.00,40.00,9,6,18,0.00
2013-2-18,63,52,40,59,47,37,100,85,60,0.00,40.00,19,11,34,0.42
2013-2-19,63,55,43,60,39,25,100,62,25,0.00,40.00,12,7,21,0.78
2013-2-20,57,48,39,29,26,22,62,43,26,0.00,40.00,13,7,20,0.00
2013-2-21,68,57,45,68,46,25,100,70,42,0.00,40.00,21,11,31,1.16
2013-2-22,65,59,53,65,53,47,100,83,55,0.00,40.00,8,5,20,0.97
2013-2-23,63,54,47,53,49,43,100,84,59,0.00,40.00,8,5,16,0.23
2013-2-24,71,56,40,58,44,40,100,70,35,0.00,40.00,18,6,28,0.17
2013-2-25,66,61,58,64,61,49,100,99,69,0.00,40.00,18,5,29,0.59
2013-2-26,59,48,38,49,36,33,100,67,44,0.00,40.00,10,6,21,0.05
2013-2-27,68,51,33,47,37,33,100,64,28,0.00,40.00,9,4,18,0.00
2013-2-28,51,44,38,39,31,23,93,63,33,0.00,40.00,12,5,19,0.00
2013-3-1,56,43,31,35,30,26,100,67,33,0.00,40.00,13,6,23,0.00
2013-3-2,42,35,27,29,25,21,100,71,43,0.00,40.00,13,4,22,0.00
2013-3-3,56,38,23,30,23,17,99,62,23,0.00,40.00,7,3,16,0.00
2013-3-4,70,54,35,56,43,28,97,68,44,0.00,40.00,15,8,29,0.00
2013-3-5,70,61,48,61,49,32,95,69,31,0.00,40.00,16,8,28,0.01
2013-3-6,60,48,38,32,24,20,62,41,22,0.00,40.00,12,8,22,0.01
2013-3-7,64,48,33,38,31,28,95,58,27,0.00,40.00,7,4,13,0.00
2013-3-8,73,53,35,42,36,31,100,63,22,0.00,40.00,7,3,11,0.00
2013-3-9,70,59,48,58,50,42,96,73,51,0.00,40.00,17,8,25,0.00
2013-3-10,74,67,61,67,62,58,99,84,66,0.00,40.00,18,12,33,0.00
2013-3-11,61,50,40,61,43,34,100,81,42,0.00,40.00,12,7,24,1.78
2013-3-12,66,48,32,41,36,31,100,69,28,0.00,40.00,10,4,16,0.01
2013-3-13,64,51,36,38,28,17,100,50,16,0.00,40.00,12,7,24,0.00
2013-3-14,69,49,33,40,31,24,91,57,22,0.00,40.00,8,3,14,0.00
2013-3-15,77,58,39,46,40,33,100,58,24,0.00,40.00,8,4,19,0.00
2013-3-16,77,62,47,55,50,44,100,67,37,0.00,40.00,11,5,22,0.00
2013-3-17,79,64,52,64,57,51,100,81,48,0.00,40.00,10,5,20,0.00
2013-3-18,84,72,62,68,64,60,100,81,46,0.00,40.00,10,6,26,0.00
2013-3-19,75,62,49,62,41,33,100,52,24,0.00,40.00,12,8,21,0.00
2013-3-20,67,57,47,37,31,23,52,39,20,0.00,40.00,13,7,24,0.00
2013-3-21,64,52,39,40,30,22,73,46,25,0.00,40.00,9,5,16,0.00
2013-3-22,66,59,53,62,52,40,96,78,58,0.00,40.00,8,4,17,0.01
2013-3-23,70,64,62,69,64,62,100,99,93,0.00,40.00,11,2,15,0.05
2013-3-24,66,56,44,66,46,27,100,75,30,0.00,40.00,14,2,24,0.04
2013-3-25,55,43,33,28,22,14,76,48,20,0.00,40.00,16,10,35,0.00
2013-3-26,53,41,30,29,23,19,95,52,27,0.00,40.00,11,6,22,0.00
2013-3-27,63,43,28,29,26,23,98,59,22,0.00,40.00,8,4,13,0.00
2013-3-28,72,64,50,39,34,29,67,35,21,0.00,40.00,6,3,13,0.00
2013-3-29,77,59,39,53,44,38,100,65,29,0.00,40.00,10,4,18,0.00
2013-3-30,75,62,48,59,51,-100,100,78,42,0.00,40.00,10,4,22,0.06
2013-3-31,71,60,54,64,59,54,100,96,71,0.00,40.00,16,4,45,0.36
2013-4-1,77,62,52,63,54,46,100,79,36,0.00,40.00,6,3,14,0.01
2013-4-2,78,64,49,56,52,49,100,69,37,0.00,40.00,10,4,20,0.00
2013-4-3,62,54,48,57,53,48,100,95,74,0.00,40.00,17,9,31,1.21
2013-4-4,53,49,46,52,49,45,100,98,90,0.00,40.00,6,1,11,0.04
2013-4-5,67,53,45,49,46,44,100,81,47,0.00,40.00,10,3,18,0.01
2013-4-6,75,58,39,53,46,39,100,71,38,0.00,40.00,12,5,21,0.00
2013-4-7,75,63,52,61,55,52,100,78,45,0.00,40.00,9,6,21,0.00
2013-4-8,79,69,59,68,62,59,100,80,50,0.00,40.00,16,9,26,0.00
2013-4-9,83,74,69,71,69,67,100,85,59,0.00,40.00,21,13,31,0.00
2013-4-10,82,75,71,71,69,67,96,83,62,0.00,40.00,18,12,31,0.00
2013-4-11,74,64,48,72,62,48,100,95,81,0.00,40.00,13,8,26,0.72
2013-4-12,74,57,40,50,44,39,100,70,28,0.00,40.00,9,4,16,0.01
2013-4-13,79,63,47,54,44,38,97,58,23,0.00,40.00,12,6,21,0.01
2013-4-14,76,64,57,62,59,54,100,86,59,0.00,40.00,15,7,23,1.66
2013-4-15,81,68,56,73,65,56,100,92,69,0.00,40.00,12,6,19,0.01
2013-4-16,84,76,71,74,71,67,100,86,58,0.00,40.00,13,10,21,0.01
2013-4-17,85,76,70,73,70,68,100,84,56,0.00,40.00,14,10,27,0.00
2013-4-18,81,74,59,73,70,59,100,88,68,0.00,40.00,15,12,30,0.16
2013-4-19,60,51,42,59,42,35,100,73,41,0.00,40.00,14,9,30,0.57
2013-4-20,69,54,36,42,37,33,100,62,29,0.00,40.00,10,5,21,0.01
2013-4-21,74,59,45,47,41,36,84,54,30,0.00,40.00,10,6,17,0.00
2013-4-22,79,64,46,62,50,46,100,68,36,0.00,40.00,8,5,16,0.00
2013-4-23,81,71,63,66,63,62,100,80,53,0.00,40.00,11,10,21,0.00
2013-4-24,68,61,53,67,60,51,100,96,88,0.00,40.00,13,7,23,0.85
2013-4-25,69,58,50,51,47,39,100,71,34,0.00,40.00,9,6,16,0.12
2013-4-26,79,64,49,62,53,43,100,69,44,0.00,40.00,10,6,16,0.00
2013-4-27,80,70,62,70,65,61,100,86,59,0.00,40.00,14,5,22,0.00
2013-4-28,74,69,62,70,67,61,100,93,64,0.00,40.00,10,4,15,0.36
2013-4-29,82,67,54,67,58,54,100,79,40,0.00,40.00,5,2,10,0.01
2013-4-30,76,68,60,68,66,60,100,92,71,0.00,40.00,11,6,24,0.88
2013-5-1,78,68,64,71,66,64,100,95,68,0.00,40.00,10,7,20,0.32
2013-5-2,75,67,64,69,66,64,100,95,75,0.00,40.00,9,5,16,0.11
2013-5-3,66,56,41,66,56,41,100,97,80,0.00,40.00,13,6,23,0.13
2013-5-4,71,54,35,46,40,35,100,66,30,0.00,40.00,8,4,17,0.06
2013-5-5,60,52,45,50,44,38,100,74,47,0.00,40.00,13,6,23,0.00
2013-5-6,73,56,42,56,48,42,100,78,43,0.00,40.00,10,4,20,0.00
2013-5-7,79,64,49,61,54,49,100,77,41,0.00,40.00,7,3,15,0.00
2013-5-8,83,68,53,67,57,53,100,74,40,0.00,40.00,6,2,13,0.00
2013-5-9,82,69,57,67,62,57,100,81,48,0.00,40.00,11,5,17,0.00
2013-5-10,78,68,62,69,63,-100,100,90,62,0.00,40.00,11,4,21,1.96
2013-5-11,78,67,60,68,62,-100,100,89,61,0.00,40.00,7,4,13,0.02
2013-5-12,78,67,53,64,56,44,100,71,48,0.00,40.00,11,5,21,0.02
2013-5-13,80,63,48,57,45,40,100,58,27,0.00,40.00,9,4,14,0.00
2013-5-14,85,67,49,61,54,49,100,71,35,0.00,40.00,7,3,14,0.00
2013-5-15,82,68,53,65,58,53,100,75,43,0.00,40.00,11,4,18,0.00
2013-5-16,80,61,57,67,38,-100,100,80,49,0.00,40.00,11,6,24,0.00
2013-5-17,85,74,68,72,61,-100,100,83,63,0.00,40.00,8,4,16,0.00
2013-5-18,87,78,72,74,71,69,100,82,56,0.00,40.00,7,5,15,0.00
2013-5-19,87,78,69,75,71,69,100,83,58,0.00,40.00,9,6,17,0.00
2013-5-20,88,79,73,74,73,70,100,83,57,0.00,40.00,10,8,18,0.00
2013-5-21,88,79,72,75,71,67,100,80,53,0.00,40.00,12,8,25,0.00
2013-5-22,81,72,66,73,69,66,100,92,62,0.00,40.00,8,4,20,1.13
2013-5-23,89,76,63,75,70,63,100,82,53,0.00,40.00,5,2,10,0.01
2013-5-24,85,76,68,73,68,66,100,77,55,0.00,40.00,8,5,17,0.00
2013-5-25,86,73,61,66,58,51,85,61,43,0.00,40.00,10,5,15,0.00
2013-5-26,84,72,60,69,62,56,100,75,40,0.00,40.00,8,3,13,0.00
2013-5-27,87,74,59,69,64,59,100,75,45,0.00,40.00,10,5,18,0.00
2013-5-28,87,75,63,68,65,61,100,75,50,0.00,40.00,11,7,21,0.00
2013-5-29,83,76,67,75,71,61,100,86,67,0.00,40.00,18,8,28,0.01
2013-5-30,84,78,73,76,74,70,100,88,65,0.00,40.00,14,10,29,0.16
2013-5-31,89,80,74,76,74,72,100,84,59,0.00,40.00,12,8,20,0.01
2013-6-1,90,80,74,76,73,70,100,81,55,0.00,40.00,12,6,20,0.01
2013-6-2,84,75,67,76,71,67,100,88,63,0.00,40.00,9,5,24,0.59
2013-6-3,87,78,70,74,71,69,100,81,58,0.00,40.00,7,4,13,0.01
2013-6-4,92,80,70,75,73,70,100,80,49,0.00,40.00,9,4,17,0.00
2013-6-5,89,79,72,79,74,67,100,86,52,0.00,40.00,8,4,17,0.42
2013-6-6,87,76,69,75,72,69,100,89,64,0.00,40.00,8,4,21,0.01
2013-6-7,84,74,69,71,69,66,100,86,54,0.00,40.00,10,4,17,0.01
2013-6-8,88,76,66,73,69,66,100,84,52,0.00,40.00,8,4,15,0.08
2013-6-9,89,76,67,75,71,67,100,86,51,0.00,40.00,9,4,17,0.09
2013-6-10,91,80,68,75,71,68,100,79,49,0.00,40.00,6,3,16,0.05
2013-6-11,93,81,71,78,74,70,100,82,51,0.00,40.00,5,2,10,0.01
2013-6-12,93,82,71,78,73,69,100,79,48,0.00,40.00,5,2,15,0.00
2013-6-13,92,81,71,77,73,70,100,80,51,0.00,40.00,7,4,14,0.00
2013-6-14,89,81,73,77,72,64,100,78,50,0.00,40.00,9,5,18,0.00
2013-6-15,94,80,66,72,67,65,99,68,41,0.00,40.00,7,4,12,0.00
2013-6-16,92,81,70,79,74,70,100,81,57,0.00,40.00,8,4,12,0.00
2013-6-17,91,81,72,76,72,68,100,78,47,0.00,40.00,10,4,18,0.00
2013-6-18,90,80,70,75,72,70,100,80,52,0.00,40.00,10,5,25,0.43
2013-6-19,88,77,70,75,72,70,100,87,59,0.00,40.00,7,3,12,0.72
2013-6-20,92,78,69,78,72,69,100,84,52,0.00,40.00,6,2,12,0.02
2013-6-22,91,84,73,75,71,68,100,67,47,0.00,40.00,7,5,21,1.15
2013-6-23,90,80,69,76,71,68,100,78,50,0.00,40.00,9,4,16,1.15
2013-6-24,89,77,71,77,74,71,100,90,56,0.00,40.00,6,4,17,0.28
2013-6-25,89,80,70,77,74,70,100,84,57,0.00,40.00,9,4,19,0.04
2013-6-26,93,81,69,76,73,69,100,79,51,0.00,40.00,5,3,11,0.00
2013-6-27,93,82,71,76,74,69,100,80,47,0.00,40.00,8,4,16,0.00
2013-6-28,91,81,73,77,75,72,100,83,54,0.00,40.00,8,4,17,0.00
2013-6-29,88,76,69,77,73,69,100,91,64,0.00,40.00,6,3,35,0.37
2013-6-30,89,78,66,72,65,57,100,71,34,0.00,40.00,12,4,21,0.08
2013-7-1,86,75,64,68,64,62,100,71,44,0.00,40.00,9,4,17,0.00
2013-7-2,87,76,64,69,65,64,100,73,46,0.00,40.00,6,3,13,0.00
2013-7-3,86,75,66,71,67,64,97,80,55,0.00,40.00,10,5,17,0.04
2013-7-4,89,76,68,73,70,68,100,83,53,0.00,40.00,8,4,14,0.02
2013-7-5,81,75,69,75,71,68,100,89,75,0.00,40.00,13,5,22,0.01
2013-7-6,87,75,69,74,71,69,100,88,58,0.00,40.00,12,4,18,0.01
2013-7-7,85,77,73,76,74,72,100,92,69,0.00,40.00,9,4,14,0.58
2013-7-8,93,78,72,77,73,71,100,87,50,0.00,40.00,8,2,20,0.51
2013-7-9,92,80,70,77,73,70,100,84,52,0.00,40.00,6,2,13,0.48
2013-7-10,92,81,74,78,70,-100,100,76,55,0.00,40.00,6,3,13,0.01
2013-7-11,89,76,70,76,74,70,100,94,65,0.00,40.00,12,4,28,1.31
2013-7-12,91,79,69,75,70,66,100,78,44,0.00,40.00,9,3,15,0.01
2013-7-13,88,79,68,72,69,65,93,73,54,0.00,40.00,7,4,13,0.01
2013-7-14,88,76,69,74,71,68,100,87,56,0.00,40.00,8,4,15,0.00
2013-7-15,88,76,68,75,71,68,100,87,59,0.00,40.00,10,4,21,0.02
2013-7-16,85,80,75,75,73,71,96,82,66,0.00,40.00,12,8,22,0.02
2013-7-17,90,80,72,75,73,71,100,83,55,0.00,40.00,8,5,14,0.01
2013-7-18,90,78,71,74,70,65,100,80,45,0.00,40.00,12,4,28,0.12
2013-7-19,91,80,70,77,72,67,100,79,46,0.00,40.00,8,3,16,0.01
2013-7-20,90,77,68,77,69,-100,100,82,54,0.00,40.00,7,2,16,0.00
2013-7-21,87,76,70,76,73,70,100,89,66,0.00,40.00,10,4,18,0.14
2013-7-22,90,77,72,78,74,71,100,91,60,0.00,40.00,8,4,30,0.66
2013-7-23,91,81,73,78,75,71,100,83,53,0.00,40.00,9,5,19,0.05
2013-7-24,89,81,72,76,74,70,99,80,58,0.00,40.00,8,5,31,0.30
2013-7-25,90,79,72,75,72,68,100,82,50,0.00,40.00,8,3,13,0.30
2013-7-26,91,78,65,73,69,65,100,76,49,0.00,40.00,6,3,11,0.01
2013-7-27,81,77,74,79,75,72,100,93,76,0.00,40.00,7,4,21,0.93
2013-7-28,88,78,71,77,73,71,100,85,57,0.00,40.00,6,3,11,0.29
2013-7-29,92,80,71,79,73,70,100,83,51,0.00,40.00,6,2,10,0.00
2013-7-30,93,82,72,79,74,71,100,80,50,0.00,40.00,7,2,11,0.00
2013-7-31,93,83,75,76,74,72,98,79,52,0.00,40.00,8,3,16,0.00
2013-8-1,93,80,73,77,75,73,100,85,54,0.00,40.00,6,3,14,1.02
2013-8-2,95,82,71,79,73,71,100,79,49,0.00,40.00,7,2,17,0.75
2013-8-3,94,82,73,78,75,72,100,81,49,0.00,40.00,6,2,12,0.00
2013-8-4,95,83,74,78,75,72,100,78,47,0.00,40.00,7,3,13,0.00
2013-8-5,95,84,74,77,75,71,100,76,47,0.00,40.00,7,4,13,0.00
2013-8-6,96,84,74,78,74,70,100,76,43,0.00,40.00,6,3,12,0.00
2013-8-7,97,84,74,78,74,69,100,74,43,0.00,40.00,5,3,10,0.00
2013-8-8,98,83,73,78,74,72,100,78,46,0.00,40.00,7,3,25,0.00
2013-8-9,94,80,73,79,75,71,100,86,51,0.00,40.00,7,3,19,0.09
2013-8-10,95,82,74,78,74,69,100,81,44,0.00,40.00,7,3,12,0.18
2013-8-11,92,80,72,78,74,72,100,85,52,0.00,40.00,12,3,21,0.01
2013-8-12,93,79,72,79,73,69,100,84,48,0.00,40.00,15,3,26,0.01
2013-8-13,88,75,71,78,71,-100,100,91,67,0.00,40.00,9,3,30,1.36
2013-8-14,85,74,71,76,73,71,100,96,72,0.00,40.00,6,1,12,1.57
2013-8-15,88,72,70,74,60,-100,100,80,54,0.00,40.00,5,3,11,0.47
2013-8-16,89,75,69,76,65,-100,100,79,51,0.00,40.00,19,4,31,1.92
2013-8-17,84,73,68,73,68,-100,100,88,66,0.00,40.00,10,5,18,1.93
2013-8-18,80,73,68,73,70,68,100,92,71,0.00,40.00,9,6,17,0.01
2013-8-19,87,72,71,75,62,-100,100,87,57,0.00,40.00,5,1,10,0.02
2013-8-20,89,75,69,76,70,-100,100,89,55,0.00,40.00,5,2,10,0.14
2013-8-21,88,78,71,80,73,71,100,89,62,0.00,40.00,9,3,18,0.14
2013-8-22,91,81,71,77,73,70,100,80,52,0.00,40.00,7,3,14,0.00
2013-8-23,91,79,70,75,72,70,100,82,52,0.00,40.00,12,4,19,0.00
2013-8-24,87,76,70,75,70,-100,100,87,62,0.00,40.00,14,5,23,0.00
2013-8-25,86,77,70,76,73,70,100,87,64,0.00,40.00,12,6,22,0.07
2013-8-26,88,78,72,73,70,65,100,79,47,0.00,40.00,9,6,16,0.05
2013-8-27,86,73,65,67,65,63,100,80,47,0.00,40.00,8,3,14,0.00
2013-8-28,87,80,66,68,65,63,98,63,45,0.00,40.00,6,3,13,0.00
2013-8-29,90,76,64,72,66,64,100,76,45,0.00,40.00,5,2,10,0.00
2013-8-30,93,78,66,73,69,66,100,77,42,0.00,40.00,5,2,9,0.00
2013-8-31,93,79,68,76,69,-100,100,77,46,0.00,40.00,6,2,11,0.00
2013-9-1,93,80,70,76,72,70,100,80,48,0.00,40.00,7,3,13,0.00
2013-9-2,91,80,71,80,74,70,100,84,55,0.00,40.00,9,3,20,0.23
2013-9-3,94,80,73,78,75,72,100,87,52,0.00,40.00,6,3,14,0.02
2013-9-4,93,80,70,76,73,68,100,80,44,0.00,40.00,8,3,14,0.01
2013-9-5,91,79,71,77,74,71,100,85,60,0.00,40.00,8,3,18,0.00
2013-9-6,92,79,70,77,72,69,100,82,49,0.00,40.00,7,2,15,0.00
2013-9-7,94,78,69,74,68,-100,100,77,43,0.00,40.00,7,2,13,0.00
2013-9-8,93,79,66,74,69,65,100,75,42,0.00,40.00,7,2,13,0.00
2013-9-9,92,79,67,73,69,67,100,76,46,0.00,40.00,8,3,14,0.00
2013-9-10,92,81,69,75,71,69,100,74,47,0.00,40.00,8,4,14,0.00
2013-9-11,92,81,72,73,70,65,96,74,43,0.00,40.00,10,4,16,0.00
2013-9-12,93,79,68,74,68,63,100,73,38,0.00,40.00,8,3,14,0.00
2013-9-13,97,78,68,73,69,67,99,80,39,0.00,40.00,13,3,24,0.01
2013-9-14,90,76,67,72,62,-100,99,68,38,0.00,40.00,7,5,15,0.01
2013-9-15,89,76,64,70,65,59,91,72,48,0.00,40.00,6,4,13,0.00
2013-9-16,92,80,69,74,70,66,100,76,43,0.00,40.00,8,4,15,0.00
2013-9-17,94,80,70,70,66,60,98,68,34,0.00,40.00,10,4,17,0.00
2013-9-18,73,71,69,72,68,66,97,90,80,0.00,40.00,4,2,7,0.26
2013-9-19,90,77,71,75,72,70,98,86,56,0.00,40.00,11,6,29,0.76
2013-9-20,90,79,72,78,74,72,100,88,57,0.00,40.00,10,5,18,0.08
2013-9-21,77,71,68,76,69,-100,100,96,92,0.00,40.00,14,4,23,3.11
2013-9-22,82,71,62,69,61,53,99,73,38,0.00,40.00,8,6,16,0.23
2013-9-23,88,74,61,74,66,56,97,75,57,0.00,40.00,8,5,12,0.00
2013-9-24,85,76,69,77,74,69,100,94,75,0.00,40.00,11,5,17,0.20
2013-9-25,89,74,63,73,65,55,100,78,33,0.00,40.00,7,3,16,0.02
2013-9-26,88,73,60,68,63,60,100,77,42,0.00,40.00,6,2,14,0.00
2013-9-27,88,75,65,71,68,64,100,80,51,0.00,40.00,7,4,12,0.00
2013-9-28,87,73,64,67,62,-100,99,75,45,0.00,40.00,7,3,12,0.00
2013-9-29,76,68,61,73,66,60,99,93,82,0.00,40.00,5,2,10,0.05
2013-9-30,85,74,66,73,69,65,98,86,65,0.00,40.00,10,5,16,0.02
2013-10-1,75,73,71,71,70,69,96,92,86,0.00,40.00,5,4,7,0.00
2013-10-2,85,76,71,74,71,69,98,87,62,0.00,40.00,9,3,14,0.11
2013-10-3,88,77,70,74,72,69,100,85,53,0.00,40.00,10,4,19,0.01
2013-10-4,89,78,71,73,71,70,100,84,54,0.00,40.00,11,6,20,0.00
2013-10-5,85,77,70,77,72,69,100,85,62,0.00,40.00,10,6,22,0.11
2013-10-6,74,69,57,72,65,53,100,90,69,0.00,40.00,11,4,18,0.08
2013-10-7,75,63,54,55,52,48,89,69,47,0.00,40.00,11,6,21,0.01
2013-10-8,77,62,52,57,52,50,95,74,40,0.00,40.00,7,4,14,0.00
2013-10-9,83,67,51,67,58,51,100,77,44,0.00,40.00,6,3,10,0.00
2013-10-10,82,70,63,69,66,63,100,87,56,0.00,40.00,8,3,13,0.00
2013-10-11,87,72,62,73,68,62,100,87,51,0.00,40.00,5,2,10,0.00
2013-10-12,89,73,64,74,66,-100,100,83,47,0.00,40.00,5,1,10,0.01
2013-10-13,88,76,66,73,69,65,100,82,50,0.00,40.00,6,3,10,0.01
2013-10-14,85,73,64,68,64,60,96,77,45,0.00,40.00,7,4,16,0.00
2013-10-15,86,72,61,69,64,61,100,80,47,0.00,40.00,6,2,14,0.00
2013-10-16,81,74,68,72,69,66,99,85,65,0.00,40.00,7,4,13,0.00
2013-10-17,72,66,57,71,64,57,99,94,86,0.00,40.00,8,4,12,0.16
2013-10-18,72,61,51,60,55,51,100,83,54,0.00,40.00,9,4,16,0.01
2013-10-19,73,62,55,60,55,-100,99,82,56,0.00,40.00,9,4,19,0.21
2013-10-20,75,59,48,56,51,47,97,79,44,0.00,40.00,6,3,13,0.03
2013-10-21,73,60,48,62,56,48,100,86,63,0.00,40.00,7,2,10,0.00
2013-10-22,78,64,54,62,59,54,100,84,53,0.00,40.00,9,4,17,0.00
2013-10-23,74,58,47,54,47,41,100,73,30,0.00,40.00,8,4,15,0.00
2013-10-24,80,60,42,56,49,42,100,73,35,0.00,40.00,6,2,16,0.00
2013-10-25,67,56,46,54,42,36,85,63,33,0.00,40.00,10,6,19,0.00
2013-10-26,76,55,39,52,39,-100,96,64,29,0.00,40.00,6,3,9,0.00
2013-10-27,73,60,47,60,53,47,100,81,54,0.00,40.00,7,3,14,0.00
2013-10-28,84,69,59,65,59,-100,99,78,46,0.00,40.00,6,3,13,0.00
2013-10-29,80,68,57,65,61,57,100,83,53,0.00,40.00,10,4,17,0.00
2013-10-30,76,68,61,68,64,61,100,88,69,0.00,40.00,11,5,17,0.00
2013-10-31,75,70,66,71,68,65,99,95,84,0.00,40.00,12,8,22,1.11
2013-11-1,76,64,50,66,56,47,99,79,41,0.00,40.00,8,4,16,0.57
2013-11-2,71,58,47,52,44,-100,100,67,32,0.00,40.00,11,5,21,0.00
2013-11-3,67,52,42,46,42,40,98,74,40,0.00,40.00,10,4,17,0.00
2013-11-4,72,56,41,56,49,41,100,81,50,0.00,40.00,9,3,16,0.00
2013-11-5,76,64,57,59,56,53,99,77,55,0.00,40.00,11,7,18,0.00
2013-11-6,80,67,55,71,63,54,99,88,65,0.00,40.00,11,4,24,0.14
2013-11-7,65,54,45,64,46,38,99,76,42,0.00,40.00,14,9,28,0.16
2013-11-8,64,51,41,43,38,34,82,64,35,0.00,40.00,13,5,21,0.01
2013-11-9,71,56,43,55,44,-100,90,69,47,0.00,40.00,5,3,9,0.00
2013-11-10,74,61,51,53,49,43,92,68,38,0.00,40.00,8,4,15,0.00
2013-11-11,76,59,48,51,48,46,98,74,35,0.00,40.00,5,2,9,0.00
2013-11-12,67,51,36,52,44,28,98,76,58,0.00,40.00,17,9,33,0.00
2013-11-13,56,41,31,29,23,20,72,53,25,0.00,40.00,13,7,22,0.00
2013-11-14,66,48,29,44,34,22,92,60,42,0.00,40.00,9,5,13,0.00
2013-11-15,69,58,51,62,54,43,98,86,67,0.00,40.00,7,4,12,0.28
2013-11-16,76,67,61,68,62,-100,100,88,71,0.00,40.00,12,8,21,0.01
2013-11-17,79,72,68,73,70,68,100,95,81,0.00,40.00,9,6,17,0.02
2013-11-18,78,69,55,73,47,31,100,53,22,0.00,40.00,10,6,32,0.01
2013-11-19,64,53,42,38,31,22,67,46,20,0.00,40.00,11,7,24,0.01
2013-11-20,72,53,38,48,36,30,95,58,26,0.00,40.00,9,4,15,0.00
2013-11-21,67,60,49,63,58,48,100,95,84,0.00,40.00,11,7,15,0.00
2013-11-22,73,66,63,66,64,62,99,95,78,0.00,40.00,8,1,12,0.47
2013-11-23,64,52,43,63,50,-100,100,95,85,0.00,40.00,11,4,24,0.09
2013-11-24,50,41,34,39,26,22,85,57,34,0.00,40.00,14,9,23,0.01
2013-11-25,45,42,38,45,36,22,99,81,53,0.00,40.00,9,7,17,0.49
2013-11-26,48,43,38,48,42,36,100,97,94,0.00,40.00,16,10,31,0.93
2013-11-27,46,37,26,36,27,21,95,69,37,0.00,40.00,13,8,26,0.33
2013-11-28,49,34,25,34,25,22,98,75,36,0.00,40.00,7,2,11,0.01
2013-11-29,62,40,26,35,28,22,98,70,22,0.00,40.00,7,2,13,0.00
2013-11-30,68,44,28,38,29,-100,99,67,20,0.00,40.00,4,1,10,0.00
2013-12-1,72,52,33,52,44,33,100,78,42,0.00,40.00,6,2,13,0.00
2013-12-2,73,61,52,62,56,49,100,85,66,0.00,40.00,8,4,17,0.00
2013-12-3,78,68,61,67,63,61,100,87,59,0.00,40.00,7,5,22,0.00
2013-12-4,79,72,67,69,67,65,98,86,62,0.00,40.00,9,6,19,0.00
2013-12-5,81,74,70,71,69,67,98,86,63,0.00,40.00,9,5,17,0.00
2013-12-6,73,50,36,71,49,35,100,97,91,0.00,40.00,12,7,23,0.25
2013-12-7,36,34,32,36,31,-100,99,94,90,0.00,40.00,12,8,25,0.07
2013-12-8,46,41,36,46,41,36,100,99,99,0.00,40.00,7,4,12,3.54
2013-12-9,47,45,40,46,45,39,100,98,93,0.00,40.00,8,5,15,1.12
2013-12-10,48,39,32,39,33,30,98,80,53,0.00,40.00,14,7,26,0.14
2013-12-11,58,44,32,46,36,29,92,74,54,0.00,40.00,8,5,16,0.01
2013-12-12,55,41,30,32,26,18,88,60,24,0.00,40.00,10,6,17,0.00
2013-12-13,59,46,32,52,35,22,89,66,47,0.00,40.00,11,6,15,0.00
2013-12-14,68,58,43,62,52,-100,100,86,69,0.00,40.00,13,7,22,0.59
2013-12-15,50,41,30,41,33,29,98,75,53,0.00,40.00,13,7,24,0.01
2013-12-16,63,41,26,39,32,26,99,76,28,0.00,40.00,4,1,9,0.00
2013-12-17,66,45,29,42,35,29,99,76,33,0.00,40.00,5,2,13,0.00
2013-12-18,68,48,33,41,37,33,99,70,33,0.00,40.00,8,2,15,0.00
2013-12-19,70,57,39,57,50,34,96,79,59,0.00,40.00,12,5,20,0.00
2013-12-20,76,67,59,67,63,56,93,86,71,0.00,40.00,11,8,20,0.02
2013-12-21,78,71,60,69,65,-100,96,83,69,0.00,40.00,15,12,28,0.26
2013-12-22,65,59,53,59,56,51,99,92,79,0.00,40.00,8,3,16,0.85
2013-12-23,53,40,31,51,34,27,96,80,59,0.00,40.00,13,9,24,0.02
2013-12-24,50,37,29,29,26,23,89,68,36,0.00,40.00,9,6,18,0.00
2013-12-25,50,37,26,32,26,22,87,67,35,0.00,40.00,8,4,12,0.00
2013-12-26,59,44,31,36,30,26,90,61,35,0.00,40.00,8,4,14,0.00
2013-12-27,54,46,38,35,32,26,84,61,35,0.00,40.00,7,5,13,0.00
2013-12-28,48,45,42,47,40,-100,99,87,51,0.00,40.00,6,2,11,0.68
2013-12-29,60,48,40,47,43,38,100,85,44,0.00,40.00,6,1,11,0.06
2013-12-30,54,46,39,46,43,37,100,89,69,0.00,40.00,8,2,17,0.01
2013-12-31,46,41,36,37,35,33,89,80,60,0.00,40.00,8,6,17,0.00
2014-1-1,56,49,41,53,46,37,100,90,79,0.00,40.00,6,2,10,0.06
2014-1-2,56,49,34,56,40,22,100,75,46,0.00,40.00,9,2,18,0.16